Terminal Aerodrome Forecast
Issued by NWS Northern Indiana

Home | Current Version | Previous Version | Text Only | Print | Product List | Glossary Off
Versions: 1 2 3 4 5 6 7 8 9 10 11 12

000
FTUS43 KIWX 281100
TAFFWA
TAF
KFWA 281137Z 2812/2912 VRB03KT 6SM BR SKC
     FM281400 11010KT P6SM FEW050
     FM290600 12006KT 6SM BR SCT015=

USA.gov is the U.S. government's official web portal to all federal, state and local government web resources and services.